createdAt,value
2022-10-22T00:01:38.895Z,100618.75
2022-10-22T00:04:05.686Z,100621.34
2022-10-22T00:06:32.268Z,100615.19
2022-10-22T00:08:58.917Z,100612.56
2022-10-22T00:11:25.638Z,100613.47
2022-10-22T00:13:52.203Z,100606.44
2022-10-22T00:16:18.820Z,100610.84
2022-10-22T00:18:45.402Z,100621.41
2022-10-22T00:21:11.940Z,100617.00
2022-10-22T00:23:43.008Z,100615.25
2022-10-22T00:26:10.082Z,100616.13
2022-10-22T00:28:36.659Z,100617.00
2022-10-22T00:31:03.210Z,100610.84
2022-10-22T00:33:29.948Z,100608.19
2022-10-22T00:35:56.931Z,100612.63
2022-10-22T00:38:23.635Z,100604.69
2022-10-22T00:40:50.273Z,100597.63
2022-10-22T00:43:18.784Z,100594.13
2022-10-22T00:45:45.567Z,100592.34
2022-10-22T00:48:13.847Z,100596.75
2022-10-22T00:50:41.979Z,100590.59
2022-10-22T00:53:29.771Z,100590.59
2022-10-22T00:55:56.334Z,100580.00
2022-10-22T00:58:24.879Z,100580.94
2022-10-22T01:00:51.485Z,100580.00
2022-10-22T01:03:18.088Z,100585.28
2022-10-22T01:05:54.422Z,100598.50
2022-10-22T01:08:29.024Z,100595.00
2022-10-22T01:11:20.240Z,100597.63
2022-10-22T01:13:53.534Z,100594.16
2022-10-22T01:16:35.274Z,100598.50
2022-10-22T01:19:07.945Z,100585.28
2022-10-22T01:21:45.591Z,100593.22
2022-10-22T01:24:42.438Z,100595.88
2022-10-22T01:27:24.531Z,100591.47
2022-10-22T01:29:53.563Z,100594.13
2022-10-22T01:32:22.750Z,100595.84
2022-10-22T01:34:54.356Z,100587.91
2022-10-22T01:37:22.200Z,100594.06
2022-10-22T01:39:48.793Z,100589.69
2022-10-22T01:42:15.463Z,100599.41
2022-10-22T01:44:42.050Z,100587.91
2022-10-22T01:47:08.708Z,100586.19
2022-10-22T01:49:45.086Z,100574.72
2022-10-22T01:52:23.740Z,100567.69
2022-10-22T01:55:05.036Z,100565.06
2022-10-22T01:57:53.296Z,100565.06
2022-10-22T02:00:19.947Z,100557.09
2022-10-22T02:02:49.383Z,100555.34
2022-10-22T02:05:24.860Z,100562.44
2022-10-22T02:07:59.650Z,100561.56
2022-10-22T02:10:26.211Z,100562.44
2022-10-22T02:12:54.198Z,100562.44
2022-10-22T02:15:20.952Z,100562.44
2022-10-22T02:17:47.708Z,100558.84
2022-10-22T02:20:31.731Z,100559.75
2022-10-22T02:22:58.580Z,100562.44
2022-10-22T02:25:25.488Z,100566.84
2022-10-22T02:27:59.755Z,100575.72
2022-10-22T02:30:26.412Z,100577.44
2022-10-22T02:33:13.085Z,100587.13
2022-10-22T02:35:39.925Z,100586.28
2022-10-22T02:38:06.621Z,100575.72
2022-10-22T02:40:33.183Z,100567.78
2022-10-22T02:42:59.922Z,100559.84
2022-10-22T02:45:26.494Z,100564.28
2022-10-22T02:47:53.058Z,100576.63
2022-10-22T02:50:19.660Z,100569.56
2022-10-22T02:52:46.245Z,100562.56
2022-10-22T02:55:12.801Z,100577.53
2022-10-22T02:57:39.550Z,100583.69
2022-10-22T03:00:07.175Z,100581.94
2022-10-22T03:02:33.730Z,100583.69
2022-10-22T03:05:00.324Z,100581.94
2022-10-22T03:07:26.907Z,100591.62
2022-10-22T03:09:53.581Z,100589.91
2022-10-22T03:12:20.269Z,100590.78
2022-10-22T03:14:46.963Z,100590.84
2022-10-22T03:17:13.526Z,100588.19
2022-10-22T03:19:40.146Z,100586.47
2022-10-22T03:22:09.867Z,100585.59
2022-10-22T03:24:46.348Z,100582.06
2022-10-22T03:27:13.186Z,100574.16
2022-10-22T03:29:39.890Z,100580.34
2022-10-22T03:32:06.518Z,100572.44
2022-10-22T03:34:33.093Z,100568.94
2022-10-22T03:37:00.003Z,100570.72
2022-10-22T03:39:26.555Z,100554.84
2022-10-22T03:41:53.187Z,100543.44
2022-10-22T03:44:19.792Z,100535.50
2022-10-22T03:46:46.343Z,100531.13
2022-10-22T03:49:12.976Z,100521.47
2022-10-22T03:51:39.570Z,100523.25
2022-10-22T03:54:06.171Z,100518.81
2022-10-22T03:56:32.800Z,100530.31
2022-10-22T03:59:00.076Z,100533.81
2022-10-22T04:01:27.360Z,100541.00
2022-10-22T04:03:54.118Z,100542.88
2022-10-22T04:06:20.672Z,100542.03
2022-10-22T04:08:47.351Z,100550.66
2022-10-22T04:11:14.428Z,100568.00
2022-10-22T04:13:41.014Z,100567.78
2022-10-22T04:16:18.303Z,100562.16
2022-10-22T04:18:45.227Z,100552.91
2022-10-22T04:21:12.609Z,100543.50
2022-10-22T04:23:39.287Z,100539.41
2022-10-22T04:26:07.050Z,100551.28
2022-10-22T04:28:34.673Z,100557.91
2022-10-22T04:31:01.293Z,100554.94
2022-10-22T04:33:27.852Z,100553.75
2022-10-22T04:35:54.417Z,100554.41
2022-10-22T04:38:20.966Z,100555.06
2022-10-22T04:40:47.518Z,100547.81
2022-10-22T04:43:14.082Z,100556.47
2022-10-22T04:45:40.625Z,100553.62
2022-10-22T04:48:07.303Z,100551.81
2022-10-22T04:50:33.990Z,100553.44
2022-10-22T04:53:00.558Z,100544.59
2022-10-22T04:55:27.202Z,100548.91
2022-10-22T04:57:53.823Z,100541.75
2022-10-22T05:00:20.416Z,100545.28
2022-10-22T05:02:50.527Z,100547.00
2022-10-22T05:05:17.257Z,100537.25
2022-10-22T05:07:43.942Z,100541.63
2022-10-22T05:10:10.737Z,100527.53
2022-10-22T05:12:37.404Z,100538.97
2022-10-22T05:15:04.100Z,100554.00
2022-10-22T05:17:30.671Z,100547.84
2022-10-22T05:19:57.217Z,100549.63
2022-10-22T05:22:23.799Z,100539.97
2022-10-22T05:24:50.488Z,100547.97
2022-10-22T05:27:17.037Z,100548.91
2022-10-22T05:29:43.584Z,100552.47
2022-10-22T05:32:10.150Z,100543.75
2022-10-22T05:34:36.775Z,100544.66
2022-10-22T05:37:03.478Z,100543.84
2022-10-22T05:39:30.064Z,100562.47
2022-10-22T05:41:56.694Z,100557.19
2022-10-22T05:44:23.253Z,100559.00
2022-10-22T05:46:49.806Z,100547.56
2022-10-22T05:49:16.399Z,100545.87
2022-10-22T05:51:43.160Z,100545.00
2022-10-22T05:54:13.036Z,100557.41
2022-10-22T05:56:39.669Z,100560.13
2022-10-22T05:59:06.344Z,100560.13
2022-10-22T06:01:35.364Z,100565.41
2022-10-22T06:04:04.055Z,100567.19
2022-10-22T06:06:34.226Z,100572.56
2022-10-22T06:09:26.550Z,100577.88
2022-10-22T06:11:53.211Z,100576.06
2022-10-22T06:14:20.250Z,100581.41
2022-10-22T06:16:46.875Z,100582.34
2022-10-22T06:19:14.388Z,100592.06
2022-10-22T06:21:40.959Z,100600.88
2022-10-22T06:24:07.922Z,100596.50
2022-10-22T06:26:34.505Z,100593.88
2022-10-22T06:29:04.285Z,100584.19
2022-10-22T06:31:36.762Z,100586.00
2022-10-22T06:34:04.639Z,100593.03
2022-10-22T06:36:31.305Z,100588.69
2022-10-22T06:38:57.937Z,100592.19
2022-10-22T06:41:28.595Z,100599.25
2022-10-22T06:43:57.454Z,100600.19
2022-10-22T06:46:24.605Z,100601.06
2022-10-22T06:48:52.941Z,100600.19
2022-10-22T06:51:22.533Z,100604.62
2022-10-22T06:53:49.289Z,100622.31
2022-10-22T06:56:17.936Z,100624.94
2022-10-22T06:58:47.419Z,100611.72
2022-10-22T07:01:14.748Z,100611.72
2022-10-22T07:03:41.499Z,100615.28
2022-10-22T07:06:09.927Z,100602.06
2022-10-22T07:08:36.880Z,100597.63
2022-10-22T07:11:08.491Z,100595.81
2022-10-22T07:13:35.299Z,100594.13
2022-10-22T07:16:02.168Z,100601.12
2022-10-22T07:18:28.744Z,100599.41
2022-10-22T07:20:55.303Z,100594.97
2022-10-22T07:23:21.890Z,100599.41
2022-10-22T07:25:48.609Z,100591.47
2022-10-22T07:28:15.232Z,100590.56
2022-10-22T07:30:41.942Z,100588.00
2022-10-22T07:33:08.565Z,100593.28
2022-10-22T07:35:37.355Z,100582.69
2022-10-22T07:38:04.354Z,100580.06
2022-10-22T07:40:30.929Z,100588.00
2022-10-22T07:42:57.515Z,100586.22
2022-10-22T07:45:24.072Z,100589.72
2022-10-22T07:47:50.619Z,100587.94
2022-10-22T07:50:17.440Z,100582.59
2022-10-22T07:52:44.461Z,100587.81
2022-10-22T07:55:11.129Z,100593.13
2022-10-22T07:57:37.751Z,100585.25
2022-10-22T08:00:05.845Z,100593.22
2022-10-22T08:02:32.494Z,100596.78
2022-10-22T08:05:01.767Z,100595.06
2022-10-22T08:07:28.369Z,100597.78
2022-10-22T08:09:54.992Z,100597.84
2022-10-22T08:12:21.779Z,100593.44
2022-10-22T08:14:48.323Z,100589.03
2022-10-22T08:17:15.423Z,100595.19
2022-10-22T08:19:42.124Z,100600.47
2022-10-22T08:22:08.663Z,100599.59
2022-10-22T08:24:35.613Z,100581.06
2022-10-22T08:27:02.203Z,100587.25
2022-10-22T08:29:31.187Z,100587.25
2022-10-22T08:31:57.796Z,100592.53
2022-10-22T08:34:24.417Z,100588.19
2022-10-22T08:36:50.994Z,100595.25
2022-10-22T08:39:17.578Z,100593.53
2022-10-22T08:42:18.397Z,100584.84
2022-10-22T08:45:06.787Z,100604.31
2022-10-22T08:48:08.492Z,100607.00
2022-10-22T08:50:49.472Z,100605.31
2022-10-22T08:53:17.982Z,100596.56
2022-10-22T08:55:44.934Z,100596.63
2022-10-22T08:58:20.272Z,100597.53
2022-10-22T09:00:52.566Z,100596.75
2022-10-22T09:03:37.811Z,100594.16
2022-10-22T09:06:25.330Z,100597.78
2022-10-22T09:08:52.741Z,100591.62
2022-10-22T09:11:39.503Z,100590.81
2022-10-22T09:14:06.254Z,100603.25
2022-10-22T09:16:35.767Z,100605.97
2022-10-22T09:19:29.916Z,100607.72
2022-10-22T09:22:18.047Z,100607.78
2022-10-22T09:24:46.592Z,100602.56
2022-10-22T09:27:20.090Z,100596.41
2022-10-22T09:29:47.532Z,100589.37
2022-10-22T09:32:18.098Z,100595.59
2022-10-22T09:34:45.629Z,100594.72
2022-10-22T09:37:12.301Z,100600.94
2022-10-22T09:39:40.769Z,100606.31
2022-10-22T09:42:07.904Z,100611.59
2022-10-22T09:44:35.262Z,100619.56
2022-10-22T09:47:37.350Z,100621.34
2022-10-22T09:50:09.561Z,100614.34
2022-10-22T09:52:36.195Z,100614.34
2022-10-22T09:55:02.985Z,100614.41
2022-10-22T09:57:29.808Z,100602.09
2022-10-22T09:59:57.499Z,100594.16
2022-10-22T10:02:38.238Z,100598.56
2022-10-22T10:05:06.169Z,100599.50
2022-10-22T10:07:33.236Z,100598.66
2022-10-22T10:09:59.794Z,100594.28
2022-10-22T10:12:55.684Z,100598.72
2022-10-22T10:15:29.098Z,100595.22
2022-10-22T10:18:18.250Z,100589.03
2022-10-22T10:21:10.673Z,100586.37
2022-10-22T10:23:50.915Z,100576.72
2022-10-22T10:26:26.415Z,100580.31
2022-10-22T10:29:15.842Z,100579.44
2022-10-22T10:32:03.260Z,100581.22
2022-10-22T10:34:53.250Z,100580.41
2022-10-22T10:37:25.420Z,100580.41
2022-10-22T10:40:20.079Z,100583.97
2022-10-22T10:42:51.511Z,100577.81
2022-10-22T10:45:21.222Z,100576.09
2022-10-22T10:48:06.124Z,100582.25
2022-10-22T10:50:49.058Z,100580.53
2022-10-22T10:53:27.818Z,100584.06
2022-10-22T10:56:18.358Z,100588.50
2022-10-22T10:58:49.795Z,100597.38
2022-10-22T11:01:24.718Z,100601.78
2022-10-22T11:04:34.568Z,100595.66
2022-10-22T11:07:11.452Z,100608.88
2022-10-22T11:09:54.652Z,100600.06
2022-10-22T11:12:27.250Z,100598.34
2022-10-22T11:15:41.241Z,100600.16
2022-10-22T11:18:18.916Z,100593.97
2022-10-22T11:21:05.307Z,100589.59
2022-10-22T11:23:37.929Z,100583.44
2022-10-22T11:26:05.573Z,100579.03
2022-10-22T11:28:42.225Z,100579.94
2022-10-22T11:31:16.304Z,100568.50
2022-10-22T11:34:10.050Z,100568.50
2022-10-22T11:36:45.242Z,100557.09
2022-10-22T11:39:43.129Z,100555.34
2022-10-22T11:42:11.542Z,100549.16
2022-10-22T11:44:48.815Z,100549.16
2022-10-22T11:47:20.822Z,100553.59
2022-10-22T11:50:22.718Z,100550.97
2022-10-22T11:53:03.999Z,100538.66
2022-10-22T11:55:34.577Z,100549.25
2022-10-22T11:58:02.287Z,100543.94
2022-10-22T12:00:40.319Z,100543.94
2022-10-22T12:03:40.978Z,100546.66
2022-10-22T12:06:15.001Z,100551.03
2022-10-22T12:08:45.243Z,100539.59
2022-10-22T12:11:11.862Z,100541.38
2022-10-22T12:14:00.344Z,100535.22
2022-10-22T12:16:37.857Z,100536.94
2022-10-22T12:19:17.475Z,100535.22
2022-10-22T12:21:49.346Z,100543.16
2022-10-22T12:24:17.994Z,100531.72
2022-10-22T12:26:46.137Z,100534.38
2022-10-22T12:29:14.851Z,100528.19
2022-10-22T12:31:42.653Z,100523.78
2022-10-22T12:34:13.709Z,100519.41
2022-10-22T12:36:40.303Z,100518.53
2022-10-22T12:39:12.727Z,100512.41
2022-10-22T12:41:39.416Z,100522.03
2022-10-22T12:44:06.147Z,100515.91
2022-10-22T12:46:34.015Z,100517.69
2022-10-22T12:49:01.769Z,100526.47
2022-10-22T12:51:28.374Z,100517.69
2022-10-22T12:53:56.712Z,100529.13
2022-10-22T12:56:25.535Z,100536.19
2022-10-22T12:59:02.910Z,100539.75
2022-10-22T13:01:32.668Z,100529.19
2022-10-22T13:04:21.188Z,100529.19
2022-10-22T13:06:51.681Z,100530.97
2022-10-22T13:09:26.947Z,100536.25
2022-10-22T13:11:55.402Z,100541.53
2022-10-22T13:14:26.544Z,100545.03
2022-10-22T13:17:15.003Z,100537.12
2022-10-22T13:19:46.036Z,100533.59
2022-10-22T13:23:00.151Z,100530.97
2022-10-22T13:25:31.598Z,100528.31
2022-10-22T13:28:07.004Z,100531.91
2022-10-22T13:30:35.570Z,100537.19
2022-10-22T13:33:26.244Z,100537.19
2022-10-22T13:35:53.247Z,100528.37
2022-10-22T13:38:21.314Z,100524.84
2022-10-22T13:40:48.100Z,100531.91
2022-10-22T13:43:15.553Z,100530.16
2022-10-22T13:45:42.335Z,100531.94
2022-10-22T13:48:10.010Z,100528.44
2022-10-22T13:50:36.578Z,100536.34
2022-10-22T13:53:03.200Z,100544.28
2022-10-22T13:55:30.177Z,100538.13
2022-10-22T13:57:58.393Z,100536.44
2022-10-22T14:00:24.962Z,100542.56
2022-10-22T14:02:53.532Z,100545.22
2022-10-22T14:05:20.080Z,100542.56
2022-10-22T14:07:46.694Z,100539.94
2022-10-22T14:10:17.928Z,100543.50
2022-10-22T14:12:47.289Z,100540.84
2022-10-22T14:15:17.390Z,100552.28
2022-10-22T14:17:49.668Z,100546.13
2022-10-22T14:20:19.117Z,100548.78
2022-10-22T14:22:49.113Z,100554.06
2022-10-22T14:25:22.098Z,100550.56
2022-10-22T14:27:48.798Z,100544.41
2022-10-22T14:30:19.266Z,100545.28
2022-10-22T14:32:46.348Z,100549.72
2022-10-22T14:35:14.068Z,100540.03
2022-10-22T14:37:40.952Z,100543.53
2022-10-22T14:40:08.461Z,100540.03
2022-10-22T14:42:38.834Z,100535.66
2022-10-22T14:45:06.424Z,100540.94
2022-10-22T14:47:33.289Z,100540.94
2022-10-22T14:50:01.808Z,100546.25
2022-10-22T14:52:28.401Z,100545.37
2022-10-22T14:54:54.966Z,100552.44
2022-10-22T14:57:21.601Z,100553.25
2022-10-22T14:59:48.472Z,100553.31
2022-10-22T15:02:15.030Z,100563.88
2022-10-22T15:04:41.697Z,100563.03
2022-10-22T15:07:08.300Z,100555.94
2022-10-22T15:09:34.874Z,100554.22
2022-10-22T15:12:01.432Z,100554.22
2022-10-22T15:14:28.003Z,100548.94
2022-10-22T15:16:54.547Z,100553.38
2022-10-22T15:19:21.091Z,100551.63
2022-10-22T15:21:47.672Z,100556.06
2022-10-22T15:24:14.325Z,100553.41
2022-10-22T15:26:40.982Z,100556.06
2022-10-22T15:29:07.653Z,100557.81
2022-10-22T15:31:48.726Z,100554.34
2022-10-22T15:34:23.845Z,100556.13
2022-10-22T15:36:50.719Z,100555.25
2022-10-22T15:39:17.397Z,100561.41
2022-10-22T15:41:44.144Z,100559.63
2022-10-22T15:44:15.583Z,100556.13
2022-10-22T15:46:43.234Z,100558.75
2022-10-22T15:49:09.842Z,100566.69
2022-10-22T15:51:36.631Z,100564.12
2022-10-22T15:54:06.458Z,100571.19
2022-10-22T15:56:35.981Z,100563.25
2022-10-22T15:59:04.064Z,100583.53
2022-10-22T16:01:31.482Z,100582.63
2022-10-22T16:04:02.639Z,100594.06
2022-10-22T16:06:32.028Z,100607.34
2022-10-22T16:08:59.789Z,100608.19
2022-10-22T16:11:27.450Z,100614.38
2022-10-22T16:13:56.440Z,100617.91
2022-10-22T16:16:23.873Z,100615.25
2022-10-22T16:18:51.114Z,100626.69
2022-10-22T16:21:17.734Z,100622.31
2022-10-22T16:23:44.525Z,100627.59
2022-10-22T16:26:11.291Z,100627.59
2022-10-22T16:28:37.893Z,100646.97
2022-10-22T16:31:06.167Z,100650.50
2022-10-22T16:33:41.222Z,100654.03
2022-10-22T16:36:15.047Z,100659.31
2022-10-22T16:38:41.603Z,100668.16
2022-10-22T16:41:09.540Z,100667.31
2022-10-22T16:43:36.321Z,100677.00
2022-10-22T16:46:02.900Z,100686.66
2022-10-22T16:48:29.547Z,100697.22
2022-10-22T16:50:56.125Z,100700.75
2022-10-22T16:53:23.059Z,100692.88
2022-10-22T16:55:49.744Z,100698.16
2022-10-22T16:58:16.403Z,100696.38
2022-10-22T17:00:43.033Z,100710.50
2022-10-22T17:03:11.223Z,100707.87
2022-10-22T17:05:37.827Z,100702.59
2022-10-22T17:08:04.526Z,100705.22
2022-10-22T17:10:31.130Z,100708.72
2022-10-22T17:12:57.678Z,100716.66
2022-10-22T17:15:24.235Z,100710.56
2022-10-22T17:17:53.713Z,100706.16
2022-10-22T17:20:20.446Z,100706.16
2022-10-22T17:22:47.303Z,100697.34
2022-10-22T17:25:22.193Z,100691.19
2022-10-22T17:27:49.100Z,100694.72
2022-10-22T17:30:16.943Z,100695.59
2022-10-22T17:32:43.669Z,100697.34
2022-10-22T17:35:10.340Z,100711.47
2022-10-22T17:37:37.037Z,100706.19
2022-10-22T17:40:07.170Z,100715.00
2022-10-22T17:42:33.920Z,100717.63
2022-10-22T17:45:00.555Z,100722.94
2022-10-22T17:47:27.149Z,100715.00
2022-10-22T17:49:53.802Z,100722.94
2022-10-22T17:52:20.367Z,100729.13
2022-10-22T17:54:48.129Z,100735.28
2022-10-22T17:57:14.677Z,100734.41
2022-10-22T17:59:41.280Z,100731.78
2022-10-22T18:02:10.286Z,100729.13
2022-10-22T18:04:36.986Z,100723.00
2022-10-22T18:07:03.581Z,100732.69
2022-10-22T18:09:30.155Z,100740.62
2022-10-22T18:11:56.823Z,100745.91
2022-10-22T18:14:26.944Z,100755.63
2022-10-22T18:16:54.548Z,100744.16
2022-10-22T18:19:23.151Z,100757.38
2022-10-22T18:21:49.787Z,100760.00
2022-10-22T18:24:16.453Z,100760.00
2022-10-22T18:26:43.186Z,100755.63
2022-10-22T18:29:14.233Z,100751.22
2022-10-22T18:31:40.813Z,100746.00
2022-10-22T18:34:07.406Z,100760.94
2022-10-22T18:36:33.982Z,100768.87
2022-10-22T18:39:01.511Z,100764.56
2022-10-22T18:41:29.064Z,100768.00
2022-10-22T18:43:57.303Z,100763.69
2022-10-22T18:46:24.221Z,100781.28
2022-10-22T18:48:56.874Z,100789.22
2022-10-22T18:51:24.327Z,100776.00
2022-10-22T18:54:04.579Z,100777.78
2022-10-22T18:56:39.175Z,100782.19
2022-10-22T18:59:05.749Z,100782.19
2022-10-22T19:01:35.412Z,100778.66
2022-10-22T19:04:02.154Z,100772.50
2022-10-22T19:06:37.162Z,100764.59
2022-10-22T19:09:05.466Z,100783.94
2022-10-22T19:11:32.087Z,100792.78
2022-10-22T19:13:58.648Z,100798.94
2022-10-22T19:16:26.869Z,100788.38
2022-10-22T19:18:53.809Z,100781.38
2022-10-22T19:21:23.064Z,100783.16
2022-10-22T19:23:50.209Z,100791.94
2022-10-22T19:26:17.819Z,100791.94
2022-10-22T19:28:44.761Z,100789.28
2022-10-22T19:31:13.363Z,100793.72
2022-10-22T19:33:40.309Z,100806.06
2022-10-22T19:36:16.774Z,100806.06
2022-10-22T19:38:44.944Z,100805.22
2022-10-22T19:41:15.247Z,100810.50
2022-10-22T19:43:42.464Z,100814.06
2022-10-22T19:46:09.087Z,100820.19
2022-10-22T19:48:36.199Z,100826.41
2022-10-22T19:51:11.148Z,100824.63
2022-10-22T19:53:40.416Z,100828.16
2022-10-22T19:56:07.963Z,100831.69
2022-10-22T19:58:34.885Z,100831.69
2022-10-22T20:01:10.232Z,100829.94
2022-10-22T20:03:37.569Z,100833.50
2022-10-22T20:06:05.368Z,100841.44
2022-10-22T20:08:34.478Z,100839.69
2022-10-22T20:11:01.502Z,100850.22
2022-10-22T20:13:28.147Z,100857.28
2022-10-22T20:15:54.785Z,100865.22
2022-10-22T20:18:22.506Z,100860.78
2022-10-22T20:20:49.398Z,100866.12
2022-10-22T20:23:16.103Z,100870.56
2022-10-22T20:25:43.818Z,100863.50
2022-10-22T20:28:10.428Z,100866.12
2022-10-22T20:30:43.874Z,100868.81
2022-10-22T20:33:12.628Z,100868.81
2022-10-22T20:35:39.322Z,100860.00
2022-10-22T20:38:08.391Z,100870.56
2022-10-22T20:40:35.464Z,100858.28
2022-10-22T20:43:02.223Z,100859.16
2022-10-22T20:45:28.789Z,100860.91
2022-10-22T20:48:02.113Z,100865.34
2022-10-22T20:50:31.307Z,100868.00
2022-10-22T20:52:58.147Z,100870.63
2022-10-22T20:55:24.748Z,100866.25
2022-10-22T20:57:51.313Z,100890.03
2022-10-22T21:00:18.138Z,100890.03
2022-10-22T21:02:44.784Z,100896.19
2022-10-22T21:05:11.353Z,100890.09
2022-10-22T21:07:40.692Z,100884.81
2022-10-22T21:10:10.380Z,100897.97
2022-10-22T21:12:41.799Z,100889.22
2022-10-22T21:15:11.770Z,100883.06
2022-10-22T21:17:40.219Z,100884.84
2022-10-22T21:20:07.054Z,100882.19
2022-10-22T21:22:33.698Z,100883.97
2022-10-22T21:25:00.245Z,100889.25
2022-10-22T21:27:26.867Z,100889.25
2022-10-22T21:29:53.418Z,100894.53
2022-10-22T21:32:20.054Z,100896.31
2022-10-22T21:34:46.642Z,100903.38
2022-10-22T21:37:13.396Z,100885.81
2022-10-22T21:39:42.059Z,100887.53
2022-10-22T21:42:11.085Z,100892.88
2022-10-22T21:44:37.647Z,100882.31
2022-10-22T21:47:04.691Z,100891.09
2022-10-22T21:49:31.343Z,100878.81
2022-10-22T21:52:00.088Z,100884.94
2022-10-22T21:54:27.106Z,100882.34
2022-10-22T21:56:53.674Z,100879.66
2022-10-22T21:59:20.245Z,100872.62
2022-10-22T22:01:46.996Z,100861.19
2022-10-22T22:04:13.615Z,100884.13
2022-10-22T22:06:40.230Z,100880.59
2022-10-22T22:09:06.909Z,100874.47
2022-10-22T22:11:33.774Z,100878.88
2022-10-22T22:14:00.348Z,100878.88
2022-10-22T22:16:28.983Z,100883.31
2022-10-22T22:18:57.372Z,100877.16
2022-10-22T22:21:24.002Z,100882.44
2022-10-22T22:23:50.891Z,100894.72
2022-10-22T22:26:28.302Z,100887.72
2022-10-22T22:28:57.202Z,100889.50
2022-10-22T22:31:31.330Z,100896.53
2022-10-22T22:34:01.860Z,100904.47
2022-10-22T22:36:28.516Z,100907.09
2022-10-22T22:38:56.212Z,100912.38
2022-10-22T22:41:23.000Z,100919.44
2022-10-22T22:43:49.647Z,100908.88
2022-10-22T22:46:16.302Z,100910.66
2022-10-22T22:48:42.861Z,100917.72
2022-10-22T22:51:09.864Z,100905.38
2022-10-22T22:53:36.420Z,100908.06
2022-10-22T22:56:17.232Z,100916.91
2022-10-22T22:58:44.015Z,100922.19
2022-10-22T23:01:30.858Z,100924.87
2022-10-22T23:04:05.040Z,100935.44
2022-10-22T23:06:33.193Z,100950.41
2022-10-22T23:08:59.986Z,100943.34
2022-10-22T23:11:27.210Z,100951.28
2022-10-22T23:14:03.881Z,100945.13
2022-10-22T23:16:32.380Z,100942.50
2022-10-22T23:18:59.008Z,100928.41
2022-10-22T23:21:30.408Z,100944.28
2022-10-22T23:23:58.570Z,100933.75
2022-10-22T23:26:27.076Z,100929.34
2022-10-22T23:28:53.629Z,100936.34
2022-10-22T23:31:21.550Z,100942.53
2022-10-22T23:33:48.194Z,100942.53
2022-10-22T23:36:14.810Z,100947.84
2022-10-22T23:38:41.648Z,100946.06
2022-10-22T23:41:08.440Z,100944.31
2022-10-22T23:43:38.353Z,100943.47
2022-10-22T23:46:05.847Z,100946.09
2022-10-22T23:48:32.430Z,100945.25
2022-10-22T23:51:06.907Z,100941.75
2022-10-22T23:53:33.569Z,100943.47
2022-10-22T23:56:06.976Z,100942.63
2022-10-22T23:58:33.773Z,100944.41
